Torreón, México

12:17 AM CDT en Agosto 29, 2014 (GMT -0500)
Torreon International | Change Station
CLOSE
Current Station
Aeropuerto
Location: Torreon,
Altura: 3688 ft
Estaciones meteorológicas cercanas

Alt 3688 ft 25.53 °N, 103.45 °W | Updated 37 minutes ago

Scattered Clouds
Nubes dispersas
86 ° F
Sensación térmica 86 ° F
N
0
Viento Variable Viento desde Norte

Hoy
Alta -- | Baja -- ° F
--% Posibilidad de precipitaciones
Ayer
Alta -- | Baja -- ° F
Precip. -- pul
7:33 AM 8:15 PM
Creciente, 12% visible
Presión 29.98 pul
Visibilidad 10.0 Millas
Nubes Nubes dispersas 10000 ft
Nubes dispersas 20000 ft
Punto de rocío 52 ° F
Humedad 31%
Precipitaciones 0.00 pul
Espesor de la nieve No disponible.
UV 0 de una escala de 12
Polen No disponible.
Calidad del aire No disponible.
Flu Activity No disponible.
METAR MMTC 290440Z 00000KT 10SM SCT100 SCT200 30/11 A2998 RMK 8/032 HZY

More Conditions Fewer Conditions

Presión 29.98 pul
Visibilidad 10.0 Millas
Nubes Nubes dispersas 10000 ft
Nubes dispersas 20000 ft
Punto de rocío 52 ° F
Humedad 31%
Precipitaciones 0.00 pul
Espesor de la nieve No disponible.
UV 0 de una escala de 12
Polen No disponible.
Calidad del aire No disponible.
Flu Activity No disponible.
METAR MMTC 290440Z 00000KT 10SM SCT100 SCT200 30/11 A2998 RMK 8/032 HZY

More Conditions Fewer Conditions

10-Day Weather Forecast

Almanac

Astronomía

Aug. 29, 2014 Salida Puesta
Hora real 7:33 AM CDT 8:15 PM CDT
Crepúsculo civil 7:09 AM CDT 8:39 PM CDT
Crepúsculo náutico 6:42 AM CDT 9:06 PM CDT
Crepúsculo astronómico 6:14 AM CDT 9:34 PM CDT
Luna 10:57 AM CDT 10:43 PM CDT
Horas de luz 13h 29m
Horas de luz
12h 42m
Tomorrow will be 1m 25s shorter.
Creciente, 12% of the Moon is Illuminated
Hoy
Creciente
Sep 2
Cuarto creciente
Sep 8
Luna llena
Sep 15
Cuarto menguante
Sep 24
Nueva

Extremos de ayer

Máximos del país Bajas del país

Community

WunderPhotos

Upload Photos

1,748,192 ¡fotos cargadas!

Nearby

Calidad del aire

Not available.

Grosos de nieve

Not available.

Actividad de terremotos

Ciudad Distance Mag. Tiempo y dato
No hay informes recientes de la actividad sísmica.
Magnitud mínima muestra es 2,5.

Temperaturas de aguas costeras

Lugar Temperatura
Sin partes meteorológicos de las estaciones

Estaciones meteorológicas cercanas